createdAt,value
2023-01-13T00:00:17.688Z,2.10
2023-01-13T00:02:45.086Z,1.58
2023-01-13T00:05:11.565Z,1.58
2023-01-13T00:07:40.395Z,1.75
2023-01-13T00:10:09.022Z,2.03
2023-01-13T00:12:35.503Z,1.90
2023-01-13T00:15:02.510Z,2.72
2023-01-13T00:17:29.830Z,1.67
2023-01-13T00:19:56.993Z,2.08
2023-01-13T00:22:23.512Z,2.00
2023-01-13T00:24:51.027Z,1.77
2023-01-13T00:27:17.598Z,1.45
2023-01-13T00:29:44.657Z,2.35
2023-01-13T00:32:11.124Z,1.80
2023-01-13T00:34:37.535Z,1.55
2023-01-13T00:37:05.608Z,2.43
2023-01-13T00:39:36.307Z,1.60
2023-01-13T00:42:21.462Z,2.25
2023-01-13T00:44:48.128Z,2.35
2023-01-13T00:47:14.709Z,2.10
2023-01-13T00:49:41.218Z,1.47
2023-01-13T00:52:07.704Z,1.83
2023-01-13T00:54:34.720Z,2.13
2023-01-13T00:57:01.209Z,1.30
2023-01-13T00:59:27.892Z,1.83
2023-01-13T01:01:57.389Z,2.33
2023-01-13T01:04:24.149Z,2.42
2023-01-13T01:06:51.615Z,1.45
2023-01-13T01:09:20.914Z,1.30
2023-01-13T01:11:47.336Z,2.05
2023-01-13T01:14:20.020Z,1.30
2023-01-13T01:16:46.768Z,2.10
2023-01-13T01:19:13.549Z,1.90
2023-01-13T01:21:40.024Z,2.40
2023-01-13T01:24:06.961Z,2.03
2023-01-13T01:26:33.511Z,1.90
2023-01-13T01:29:02.562Z,1.83
2023-01-13T01:31:36.814Z,2.15
2023-01-13T01:34:05.802Z,1.58
2023-01-13T01:36:33.387Z,1.85
2023-01-13T01:39:02.537Z,2.03
2023-01-13T01:41:31.964Z,2.63
2023-01-13T01:44:27.729Z,2.85
2023-01-13T01:46:56.449Z,1.23
2023-01-13T01:49:35.910Z,2.53
2023-01-13T01:52:13.606Z,1.83
2023-01-13T01:54:54.312Z,2.70
2023-01-13T01:57:53.873Z,1.85
2023-01-13T02:00:21.083Z,1.75
2023-01-13T02:02:55.188Z,2.10
2023-01-13T02:05:22.233Z,1.97
2023-01-13T02:07:51.875Z,2.75
2023-01-13T02:10:21.965Z,1.52
2023-01-13T02:12:52.664Z,1.70
2023-01-13T02:15:41.537Z,1.80
2023-01-13T02:18:28.801Z,2.80
2023-01-13T02:21:33.506Z,1.65
2023-01-13T02:24:40.008Z,1.35
2023-01-13T02:27:31.088Z,3.67
2023-01-13T02:30:25.902Z,2.80
2023-01-13T02:33:04.743Z,1.97
2023-01-13T02:36:21.484Z,2.30
2023-01-13T02:39:03.402Z,1.80
2023-01-13T02:42:00.908Z,1.65
2023-01-13T02:44:34.103Z,1.40
2023-01-13T02:47:37.788Z,2.17
2023-01-13T02:50:12.539Z,2.97
2023-01-13T02:52:49.657Z,2.33
2023-01-13T02:55:31.295Z,2.00
2023-01-13T02:58:01.083Z,1.95
2023-01-13T03:00:28.847Z,2.60
2023-01-13T03:02:55.572Z,2.47
2023-01-13T03:05:22.697Z,2.30
2023-01-13T03:08:07.914Z,1.77
2023-01-13T03:10:37.458Z,3.33
2023-01-13T03:13:28.478Z,1.70
2023-01-13T03:16:14.094Z,1.92
2023-01-13T03:18:56.974Z,1.90
2023-01-13T03:21:47.626Z,1.88
2023-01-13T03:24:27.652Z,1.90
2023-01-13T03:27:18.196Z,2.23
2023-01-13T03:30:10.667Z,1.88
2023-01-13T03:32:41.127Z,2.00
2023-01-13T03:35:27.821Z,2.00
2023-01-13T03:38:04.069Z,2.63
2023-01-13T03:40:35.388Z,2.17
2023-01-13T03:43:31.059Z,1.50
2023-01-13T03:46:04.120Z,1.88
2023-01-13T03:48:37.276Z,1.77
2023-01-13T03:51:09.709Z,1.67
2023-01-13T03:53:54.211Z,1.30
2023-01-13T03:56:45.446Z,1.35
2023-01-13T03:59:20.420Z,2.00
2023-01-13T04:02:03.395Z,1.40
2023-01-13T04:04:43.242Z,1.77
2023-01-13T04:07:40.413Z,1.73
2023-01-13T04:10:10.271Z,2.17
2023-01-13T04:13:02.870Z,1.75
2023-01-13T04:15:34.225Z,0.80
2023-01-13T04:18:15.811Z,1.50
2023-01-13T04:20:44.632Z,2.47
2023-01-13T04:23:13.576Z,0.77
2023-01-13T04:25:44.533Z,1.45
2023-01-13T04:28:12.150Z,0.95
2023-01-13T04:30:39.472Z,1.90
2023-01-13T04:33:06.209Z,0.77
2023-01-13T04:35:33.997Z,0.90
2023-01-13T04:38:02.100Z,1.13
2023-01-13T04:40:29.100Z,1.13
2023-01-13T04:42:56.482Z,1.52
2023-01-13T04:45:22.984Z,0.90
2023-01-13T04:47:52.491Z,0.90
2023-01-13T04:50:22.804Z,0.60
2023-01-13T04:52:51.037Z,0.90
2023-01-13T04:55:18.773Z,0.57
2023-01-13T04:57:46.067Z,0.73
2023-01-13T05:00:16.700Z,0.57
2023-01-13T05:02:43.239Z,0.98
2023-01-13T05:05:10.314Z,0.90
2023-01-13T05:07:37.112Z,0.73
2023-01-13T05:10:04.139Z,1.00
2023-01-13T05:12:49.324Z,0.47
2023-01-13T05:15:46.134Z,0.82
2023-01-13T05:18:13.166Z,0.50
2023-01-13T05:20:39.796Z,0.73
2023-01-13T05:23:24.744Z,0.30
2023-01-13T05:25:52.759Z,0.80
2023-01-13T05:28:19.651Z,0.60
2023-01-13T05:30:49.232Z,0.50
2023-01-13T05:33:19.060Z,0.60
2023-01-13T05:35:47.429Z,0.90
2023-01-13T05:38:15.837Z,0.90
2023-01-13T05:41:01.187Z,1.33
2023-01-13T05:43:28.570Z,1.02
2023-01-13T05:46:00.499Z,1.00
2023-01-13T05:48:38.398Z,0.80
2023-01-13T05:51:08.636Z,0.50
2023-01-13T05:53:36.090Z,0.85
2023-01-13T05:56:07.592Z,0.77
2023-01-13T05:58:34.841Z,0.80
2023-01-13T06:01:08.264Z,1.10
2023-01-13T06:03:36.715Z,0.90
2023-01-13T06:06:04.456Z,1.40
2023-01-13T06:08:32.073Z,0.80
2023-01-13T06:10:58.907Z,1.45
2023-01-13T06:13:25.763Z,0.73
2023-01-13T06:15:58.384Z,0.68
2023-01-13T06:18:26.378Z,1.17
2023-01-13T06:20:53.623Z,0.65
2023-01-13T06:23:20.251Z,0.75
2023-01-13T06:26:10.933Z,0.70
2023-01-13T06:28:37.652Z,0.57
2023-01-13T06:31:07.568Z,1.42
2023-01-13T06:33:40.666Z,1.13
2023-01-13T06:36:15.457Z,1.00
2023-01-13T06:38:47.160Z,1.20
2023-01-13T06:41:14.094Z,1.05
2023-01-13T06:43:40.978Z,0.80
2023-01-13T06:46:07.544Z,1.63
2023-01-13T06:48:35.339Z,0.90
2023-01-13T06:51:03.640Z,1.00
2023-01-13T06:53:30.277Z,1.05
2023-01-13T06:55:56.844Z,1.67
2023-01-13T06:58:23.441Z,0.90
2023-01-13T07:00:51.659Z,0.70
2023-01-13T07:03:19.604Z,0.70
2023-01-13T07:05:53.071Z,0.95
2023-01-13T07:08:19.686Z,1.92
2023-01-13T07:10:47.826Z,1.15
2023-01-13T07:13:32.958Z,1.52
2023-01-13T07:16:03.079Z,0.80
2023-01-13T07:18:32.203Z,0.90
2023-01-13T07:21:10.758Z,1.60
2023-01-13T07:23:41.234Z,1.17
2023-01-13T07:29:01.037Z,1.63
2023-01-13T07:31:27.689Z,1.55
2023-01-13T07:33:54.211Z,1.73
2023-01-13T07:36:20.767Z,1.58
2023-01-13T07:38:47.265Z,1.33
2023-01-13T07:41:33.761Z,1.33
2023-01-13T07:44:00.665Z,1.45
2023-01-13T07:46:27.191Z,0.95
2023-01-13T07:48:53.731Z,1.45
2023-01-13T07:51:20.752Z,0.90
2023-01-13T07:53:47.527Z,1.13
2023-01-13T07:56:14.140Z,1.20
2023-01-13T07:58:41.777Z,1.17
2023-01-13T08:02:08.411Z,1.73
2023-01-13T08:04:39.626Z,2.00
2023-01-13T08:10:35.630Z,1.10
2023-01-13T08:13:21.068Z,2.05
2023-01-13T08:15:53.028Z,1.42
2023-01-13T08:18:22.417Z,1.15
2023-01-13T08:20:49.903Z,1.37
2023-01-13T08:23:16.837Z,1.65
2023-01-13T08:25:45.062Z,1.48
2023-01-13T08:28:12.798Z,1.25
2023-01-13T08:30:40.427Z,1.48
2023-01-13T08:33:09.673Z,1.97
2023-01-13T08:35:38.123Z,1.08
2023-01-13T08:38:05.591Z,1.20
2023-01-13T08:40:37.183Z,1.23
2023-01-13T08:43:04.244Z,1.70
2023-01-13T08:45:43.969Z,1.00
2023-01-13T08:48:11.283Z,1.00
2023-01-13T08:50:45.599Z,1.35
2023-01-13T08:56:06.559Z,1.45
2023-01-13T08:58:56.988Z,1.23
2023-01-13T09:01:33.481Z,1.35
2023-01-13T09:07:05.588Z,1.15
2023-01-13T09:09:32.086Z,1.17
2023-01-13T09:12:17.303Z,1.50
2023-01-13T09:14:44.487Z,1.52
2023-01-13T09:17:12.415Z,1.38
2023-01-13T09:19:38.953Z,1.48
2023-01-13T09:22:06.546Z,1.73
2023-01-13T09:24:37.271Z,1.40
2023-01-13T09:27:03.991Z,1.77
2023-01-13T09:29:31.724Z,0.82
2023-01-13T09:32:15.480Z,1.15
2023-01-13T09:35:00.849Z,1.10
2023-01-13T09:37:46.889Z,1.00
2023-01-13T09:40:22.966Z,1.33
2023-01-13T09:43:20.229Z,1.13
2023-01-13T09:45:52.614Z,1.42
2023-01-13T09:48:33.640Z,1.00
2023-01-13T09:51:20.376Z,1.40
2023-01-13T09:54:40.416Z,1.05
2023-01-13T09:57:15.411Z,1.15
2023-01-13T09:59:45.679Z,0.98
2023-01-13T10:02:27.504Z,0.95
2023-01-13T10:05:20.273Z,1.43
2023-01-13T10:07:51.166Z,0.73
2023-01-13T10:10:38.251Z,1.08
2023-01-13T10:13:34.396Z,1.02
2023-01-13T10:16:31.016Z,1.02
2023-01-13T10:19:18.162Z,1.67
2023-01-13T10:22:14.740Z,1.27
2023-01-13T10:24:59.709Z,2.05
2023-01-13T10:27:42.988Z,1.20
2023-01-13T10:30:17.748Z,1.13
2023-01-13T10:32:52.052Z,1.20
2023-01-13T10:35:18.490Z,1.63
2023-01-13T10:37:57.716Z,1.40
2023-01-13T10:40:27.128Z,1.27
2023-01-13T10:43:06.557Z,1.35
2023-01-13T10:45:33.445Z,1.50
2023-01-13T10:48:12.791Z,1.10
2023-01-13T10:50:40.606Z,1.90
2023-01-13T10:53:19.226Z,1.17
2023-01-13T10:56:02.849Z,1.60
2023-01-13T10:58:32.407Z,1.50
2023-01-13T11:01:25.820Z,1.50
2023-01-13T11:03:55.826Z,1.52
2023-01-13T11:06:28.921Z,1.02
2023-01-13T11:08:58.601Z,1.50
2023-01-13T11:11:42.407Z,1.27
2023-01-13T11:14:37.058Z,1.60
2023-01-13T11:17:10.857Z,1.70
2023-01-13T11:19:44.104Z,1.58
2023-01-13T11:22:23.543Z,1.17
2023-01-13T11:24:57.046Z,1.07
2023-01-13T11:27:41.637Z,1.38
2023-01-13T11:30:21.093Z,1.27
2023-01-13T11:33:04.977Z,0.80
2023-01-13T11:35:37.717Z,0.95
2023-01-13T11:38:27.456Z,0.77
2023-01-13T11:41:00.375Z,1.30
2023-01-13T11:43:40.594Z,0.98
2023-01-13T11:46:10.703Z,0.82
2023-01-13T11:48:42.263Z,0.88
2023-01-13T11:51:15.515Z,0.90
2023-01-13T11:54:10.362Z,0.98
2023-01-13T11:57:00.135Z,0.60
2023-01-13T11:59:38.360Z,1.50
2023-01-13T12:02:44.182Z,0.90
2023-01-13T12:05:24.290Z,0.93
2023-01-13T12:08:10.836Z,0.63
2023-01-13T12:10:37.227Z,0.80
2023-01-13T12:13:27.712Z,1.08
2023-01-13T12:16:30.584Z,0.88
2023-01-13T12:19:19.994Z,1.23
2023-01-13T12:22:13.382Z,0.80
2023-01-13T12:24:47.980Z,0.98
2023-01-13T12:27:24.322Z,0.80
2023-01-13T12:29:56.158Z,0.80
2023-01-13T12:32:31.634Z,1.30
2023-01-13T12:35:34.465Z,1.00
2023-01-13T12:38:15.909Z,1.25
2023-01-13T12:41:07.022Z,1.05
2023-01-13T12:43:52.527Z,0.50
2023-01-13T12:46:19.028Z,0.70
2023-01-13T12:49:04.821Z,0.73
2023-01-13T12:51:51.502Z,1.00
2023-01-13T12:54:30.284Z,1.20
2023-01-13T12:57:00.539Z,1.20
2023-01-13T12:59:28.326Z,0.80
2023-01-13T13:02:10.383Z,0.88
2023-01-13T13:04:52.933Z,0.73
2023-01-13T13:07:49.037Z,0.50
2023-01-13T13:10:20.981Z,0.90
2023-01-13T13:13:20.194Z,0.80
2023-01-13T13:15:49.530Z,0.90
2023-01-13T13:18:21.874Z,0.50
2023-01-13T13:21:11.642Z,0.77
2023-01-13T13:23:53.087Z,1.10
2023-01-13T13:26:24.751Z,0.70
2023-01-13T13:29:33.198Z,1.15
2023-01-13T13:32:21.307Z,1.60
2023-01-13T13:35:18.800Z,0.70
2023-01-13T13:38:35.924Z,0.77
2023-01-13T13:41:32.242Z,0.73
2023-01-13T13:44:24.556Z,0.70
2023-01-13T13:46:51.716Z,0.80
2023-01-13T13:49:21.396Z,0.50
2023-01-13T13:52:11.963Z,0.82
2023-01-13T13:54:42.992Z,0.70
2023-01-13T13:57:30.373Z,0.60
2023-01-13T14:00:02.569Z,0.65
2023-01-13T14:02:36.925Z,0.80
2023-01-13T14:05:15.569Z,0.85
2023-01-13T14:07:47.836Z,0.70
2023-01-13T14:10:19.613Z,0.82
2023-01-13T14:12:46.053Z,0.70
2023-01-13T14:15:27.577Z,0.93
2023-01-13T14:17:54.430Z,0.50
2023-01-13T14:20:21.102Z,0.93
2023-01-13T14:22:49.659Z,0.52
2023-01-13T14:25:28.343Z,0.85
2023-01-13T14:27:57.429Z,0.85
2023-01-13T14:30:27.771Z,0.88
2023-01-13T14:33:40.997Z,0.40
2023-01-13T14:36:23.395Z,0.68
2023-01-13T14:39:08.161Z,1.02
2023-01-13T14:41:48.239Z,1.00
2023-01-13T14:44:35.121Z,0.88
2023-01-13T14:47:19.799Z,0.80
2023-01-13T14:50:11.170Z,0.63
2023-01-13T14:52:48.436Z,0.70
2023-01-13T14:55:38.567Z,0.65
2023-01-13T14:58:28.643Z,0.98
2023-01-13T15:01:36.095Z,1.03
2023-01-13T15:04:27.104Z,1.30
2023-01-13T15:07:17.093Z,0.70
2023-01-13T15:09:48.984Z,0.98
2023-01-13T15:12:42.532Z,1.35
2023-01-13T15:15:39.451Z,1.57
2023-01-13T15:18:13.605Z,0.88
2023-01-13T15:20:41.164Z,0.80
2023-01-13T15:23:08.336Z,0.68
2023-01-13T15:25:37.089Z,0.90
2023-01-13T15:28:05.373Z,0.70
2023-01-13T15:30:32.181Z,1.00
2023-01-13T15:32:59.736Z,0.73
2023-01-13T15:35:29.495Z,0.75
2023-01-13T15:37:57.356Z,0.98
2023-01-13T15:40:33.403Z,0.90
2023-01-13T15:43:19.414Z,0.65
2023-01-13T15:46:20.336Z,0.90
2023-01-13T15:48:52.981Z,1.15
2023-01-13T15:51:22.842Z,0.45
2023-01-13T15:53:50.391Z,0.67
2023-01-13T15:56:26.956Z,1.30
2023-01-13T15:58:55.145Z,0.75
2023-01-13T16:01:23.225Z,0.60
2023-01-13T16:03:50.088Z,1.05
2023-01-13T16:06:27.860Z,0.80
2023-01-13T16:08:54.366Z,0.90
2023-01-13T16:11:23.941Z,0.60
2023-01-13T16:13:50.401Z,0.60
2023-01-13T16:16:25.635Z,1.10
2023-01-13T16:18:53.374Z,0.57
2023-01-13T16:21:25.093Z,0.70
2023-01-13T16:23:55.183Z,0.82
2023-01-13T16:26:24.495Z,1.00
2023-01-13T16:28:57.003Z,0.95
2023-01-13T16:31:40.185Z,0.90
2023-01-13T16:34:06.861Z,1.00
2023-01-13T16:36:46.324Z,1.17
2023-01-13T16:39:22.809Z,1.35
2023-01-13T16:41:49.797Z,0.95
2023-01-13T16:44:18.599Z,0.87
2023-01-13T16:46:54.014Z,0.70
2023-01-13T16:49:24.733Z,0.90
2023-01-13T16:51:53.774Z,0.90
2023-01-13T16:54:42.161Z,1.10
2023-01-13T16:57:13.296Z,0.70
2023-01-13T16:59:39.855Z,2.00
2023-01-13T17:02:15.685Z,0.90
2023-01-13T17:04:42.745Z,0.90
2023-01-13T17:07:12.621Z,1.27
2023-01-13T17:09:39.334Z,1.60
2023-01-13T17:12:06.060Z,1.00
2023-01-13T17:14:33.855Z,0.75
2023-01-13T17:17:00.512Z,1.20
2023-01-13T17:19:27.340Z,0.73
2023-01-13T17:21:53.939Z,0.90
2023-01-13T17:24:21.037Z,1.00
2023-01-13T17:26:50.328Z,1.00
2023-01-13T17:29:19.355Z,0.77
2023-01-13T17:31:52.422Z,0.40
2023-01-13T17:34:29.392Z,0.60
2023-01-13T17:36:56.632Z,0.45
2023-01-13T17:39:26.676Z,0.55
2023-01-13T17:42:03.656Z,0.50
2023-01-13T17:44:33.325Z,0.30
2023-01-13T17:47:09.703Z,0.30
2023-01-13T17:49:38.637Z,0.57
2023-01-13T17:52:09.017Z,1.48
2023-01-13T17:54:35.955Z,0.32
2023-01-13T17:57:05.863Z,0.40
2023-01-13T17:59:37.186Z,0.60
2023-01-13T18:02:07.725Z,0.68
2023-01-13T18:04:34.210Z,0.50
2023-01-13T18:07:00.705Z,0.50
2023-01-13T18:09:34.802Z,1.20
2023-01-13T18:12:01.365Z,0.60
2023-01-13T18:17:36.990Z,0.55
2023-01-13T18:20:22.176Z,0.50
2023-01-13T18:23:08.825Z,0.60
2023-01-13T18:25:57.296Z,0.70
2023-01-13T18:28:28.705Z,0.88
2023-01-13T18:30:58.081Z,0.95
2023-01-13T18:33:26.471Z,0.65
2023-01-13T18:35:53.487Z,1.13
2023-01-13T18:38:24.863Z,0.70
2023-01-13T18:40:51.443Z,0.70
2023-01-13T18:43:18.201Z,1.38
2023-01-13T18:45:50.333Z,1.27
2023-01-13T18:48:16.853Z,0.70
2023-01-13T18:50:44.719Z,0.50
2023-01-13T18:53:11.302Z,0.77
2023-01-13T18:55:39.398Z,1.25
2023-01-13T18:58:06.773Z,0.60
2023-01-13T19:00:40.764Z,0.85
2023-01-13T19:03:16.856Z,1.23
2023-01-13T19:05:43.352Z,1.10
2023-01-13T19:08:09.977Z,0.68
2023-01-13T19:11:02.675Z,1.45
2023-01-13T19:13:56.910Z,0.75
2023-01-13T19:16:54.838Z,0.90
2023-01-13T19:19:25.648Z,0.90
2023-01-13T19:21:52.481Z,0.75
2023-01-13T19:27:01.725Z,0.93
2023-01-13T19:29:33.905Z,1.03
2023-01-13T19:32:01.153Z,1.60
2023-01-13T19:34:29.198Z,2.08
2023-01-13T19:37:04.161Z,1.20
2023-01-13T19:39:31.089Z,0.93
2023-01-13T19:42:19.049Z,0.90
2023-01-13T19:45:04.528Z,0.40
2023-01-13T19:47:38.574Z,0.90
2023-01-13T19:50:15.545Z,1.20
2023-01-13T19:55:31.922Z,1.50
2023-01-13T19:58:04.441Z,0.70
2023-01-13T20:03:16.083Z,0.73
2023-01-13T20:05:43.413Z,0.77
2023-01-13T20:11:14.701Z,0.95
2023-01-13T20:13:47.021Z,0.50
2023-01-13T20:16:13.619Z,0.88
2023-01-13T20:18:42.559Z,0.40
2023-01-13T20:21:11.546Z,0.97
2023-01-13T20:23:41.017Z,0.60
2023-01-13T20:26:13.996Z,0.80
2023-01-13T20:28:40.868Z,0.70
2023-01-13T20:31:13.353Z,0.45
2023-01-13T20:33:40.801Z,0.63
2023-01-13T20:36:08.578Z,0.38
2023-01-13T20:38:38.511Z,0.63
2023-01-13T20:41:27.306Z,0.88
2023-01-13T20:43:53.943Z,1.20
2023-01-13T20:46:26.131Z,0.33
2023-01-13T20:48:56.180Z,0.52
2023-01-13T20:51:22.891Z,0.93
2023-01-13T20:54:26.416Z,0.50
2023-01-13T20:56:54.130Z,0.73
2023-01-13T20:59:20.802Z,0.80
2023-01-13T21:01:47.516Z,0.77
2023-01-13T21:04:17.142Z,0.45
2023-01-13T21:09:41.156Z,0.70
2023-01-13T21:12:30.213Z,1.00
2023-01-13T21:18:24.305Z,0.85
2023-01-13T21:21:15.099Z,1.05
2023-01-13T21:23:52.845Z,1.10
2023-01-13T21:26:21.824Z,0.90
2023-01-13T21:28:49.471Z,1.58
2023-01-13T21:31:17.043Z,0.80
2023-01-13T21:33:44.008Z,2.92
2023-01-13T21:36:15.440Z,1.05
2023-01-13T21:38:42.362Z,0.93
2023-01-13T21:41:09.698Z,1.10
2023-01-13T21:43:56.202Z,1.20
2023-01-13T21:46:43.659Z,0.80
2023-01-13T21:49:10.534Z,0.93
2023-01-13T21:51:37.697Z,0.93
2023-01-13T21:54:04.197Z,1.30
2023-01-13T21:56:30.704Z,0.90
2023-01-13T21:58:57.419Z,0.60
2023-01-13T22:01:24.061Z,1.48
2023-01-13T22:04:09.652Z,1.07
2023-01-13T22:06:36.325Z,0.93
2023-01-13T22:09:04.625Z,1.05
2023-01-13T22:11:34.470Z,1.20
2023-01-13T22:14:15.553Z,0.65
2023-01-13T22:16:50.784Z,0.73
2023-01-13T22:19:18.557Z,0.95
2023-01-13T22:21:45.290Z,0.63
2023-01-13T22:24:14.979Z,1.08
2023-01-13T22:26:43.630Z,1.08
2023-01-13T22:29:11.041Z,0.80
2023-01-13T22:31:41.900Z,0.88
2023-01-13T22:34:13.043Z,1.45
2023-01-13T22:36:39.622Z,1.05
2023-01-13T22:39:15.701Z,1.27
2023-01-13T22:41:50.738Z,0.80
2023-01-13T22:44:27.041Z,1.23
2023-01-13T22:46:53.827Z,0.88
2023-01-13T22:49:21.854Z,0.57
2023-01-13T22:51:48.972Z,1.02
2023-01-13T22:54:25.553Z,0.97
2023-01-13T22:56:51.959Z,0.98
2023-01-13T22:59:41.128Z,0.90
2023-01-13T23:02:08.865Z,0.80
2023-01-13T23:04:35.406Z,0.85
2023-01-13T23:07:03.823Z,0.77
2023-01-13T23:09:32.618Z,0.55
2023-01-13T23:12:00.653Z,0.70
2023-01-13T23:14:28.352Z,1.10
2023-01-13T23:16:55.009Z,1.23
2023-01-13T23:19:23.121Z,0.63
2023-01-13T23:21:51.025Z,0.73
2023-01-13T23:24:18.033Z,0.90
2023-01-13T23:26:44.767Z,0.90
2023-01-13T23:29:13.364Z,0.70
2023-01-13T23:31:40.537Z,0.70
2023-01-13T23:34:07.559Z,0.73
2023-01-13T23:36:37.105Z,1.05
2023-01-13T23:39:04.471Z,0.75
2023-01-13T23:41:38.575Z,0.52
2023-01-13T23:44:06.680Z,0.50
2023-01-13T23:46:35.230Z,0.95
2023-01-13T23:49:03.510Z,1.08
2023-01-13T23:51:30.365Z,0.57
2023-01-13T23:53:58.043Z,0.95
2023-01-13T23:56:27.602Z,0.60
2023-01-13T23:58:54.952Z,1.15
